createdAt,value
2023-04-16T00:00:28.270Z,6.15
2023-04-16T00:01:31.079Z,3.72
2023-04-16T00:02:32.897Z,3.80
2023-04-16T00:03:35.895Z,3.83
2023-04-16T00:04:38.378Z,4.00
2023-04-16T00:05:41.273Z,4.50
2023-04-16T00:06:42.960Z,5.45
2023-04-16T00:07:45.581Z,3.60
2023-04-16T00:08:47.276Z,5.15
2023-04-16T00:09:49.979Z,3.85
2023-04-16T00:10:53.270Z,3.58
2023-04-16T00:11:55.987Z,4.57
2023-04-16T00:12:57.711Z,5.40
2023-04-16T00:14:00.387Z,6.57
2023-04-16T00:15:02.477Z,5.13
2023-04-16T00:16:05.606Z,4.00
2023-04-16T00:17:07.341Z,5.05
2023-04-16T00:18:10.042Z,4.63
2023-04-16T00:19:12.173Z,4.28
2023-04-16T00:20:14.891Z,4.10
2023-04-16T00:21:16.611Z,4.32
2023-04-16T00:22:19.260Z,6.47
2023-04-16T00:23:21.165Z,5.38
2023-04-16T00:24:23.819Z,5.53
2023-04-16T00:25:25.586Z,5.13
2023-04-16T00:26:29.680Z,3.92
2023-04-16T00:27:31.453Z,6.68
2023-04-16T00:28:34.247Z,5.25
2023-04-16T00:29:35.975Z,5.25
2023-04-16T00:30:38.739Z,5.03
2023-04-16T00:31:40.503Z,5.65
2023-04-16T00:32:43.284Z,4.85
2023-04-16T00:33:45.194Z,4.43
2023-04-16T00:34:47.921Z,6.80
2023-04-16T00:35:49.685Z,6.68
2023-04-16T00:36:52.314Z,4.93
2023-04-16T00:37:54.057Z,4.68
2023-04-16T00:38:57.569Z,5.43
2023-04-16T00:39:59.294Z,4.82
2023-04-16T00:41:01.996Z,6.03
2023-04-16T00:42:05.496Z,5.55
2023-04-16T00:43:08.188Z,5.82
2023-04-16T00:44:09.990Z,6.63
2023-04-16T00:45:13.005Z,7.28
2023-04-16T00:46:16.460Z,4.90
2023-04-16T00:47:20.834Z,4.80
2023-04-16T00:48:22.653Z,6.70
2023-04-16T00:49:25.513Z,6.22
2023-04-16T00:50:27.409Z,5.75
2023-04-16T00:51:31.081Z,5.03
2023-04-16T00:52:32.947Z,5.43
2023-04-16T00:53:35.856Z,6.47
2023-04-16T00:54:37.662Z,5.57
2023-04-16T00:55:40.916Z,5.47
2023-04-16T00:56:42.919Z,6.13
2023-04-16T00:57:47.033Z,6.13
2023-04-16T00:58:48.790Z,6.53
2023-04-16T00:59:51.696Z,5.25
2023-04-16T01:00:53.396Z,4.40
2023-04-16T01:01:56.119Z,5.65
2023-04-16T01:03:00.013Z,4.82
2023-04-16T01:04:02.968Z,7.63
2023-04-16T01:05:05.326Z,6.35
2023-04-16T01:06:08.430Z,4.32
2023-04-16T01:07:10.123Z,5.63
2023-04-16T01:08:17.377Z,7.57
2023-04-16T01:09:19.116Z,4.63
2023-04-16T01:10:21.847Z,5.47
2023-04-16T01:11:23.566Z,4.20
2023-04-16T01:12:26.331Z,6.70
2023-04-16T01:13:29.521Z,5.95
2023-04-16T01:14:36.161Z,4.22
2023-04-16T01:15:38.128Z,6.10
2023-04-16T01:16:41.412Z,7.65
2023-04-16T01:17:44.508Z,5.43
2023-04-16T01:18:47.261Z,4.00
2023-04-16T01:19:48.954Z,4.63
2023-04-16T01:20:53.299Z,5.32
2023-04-16T01:21:55.006Z,4.38
2023-04-16T01:22:57.657Z,7.10
2023-04-16T01:24:02.702Z,5.45
2023-04-16T01:25:06.171Z,5.03
2023-04-16T01:26:07.881Z,5.80
2023-04-16T01:27:10.569Z,7.63
2023-04-16T01:28:12.357Z,4.00
2023-04-16T01:29:15.125Z,6.70
2023-04-16T01:30:16.885Z,5.70
2023-04-16T01:31:19.545Z,3.95
2023-04-16T01:32:21.327Z,4.85
2023-04-16T01:33:24.084Z,4.53
2023-04-16T01:34:25.733Z,5.95
2023-04-16T01:35:28.479Z,8.50
2023-04-16T01:36:31.551Z,3.60
2023-04-16T01:37:34.287Z,5.00
2023-04-16T01:38:36.119Z,5.10
2023-04-16T01:39:38.785Z,5.15
2023-04-16T01:40:40.527Z,5.88
2023-04-16T01:41:43.552Z,4.57
2023-04-16T01:42:45.356Z,5.93
2023-04-16T01:43:48.077Z,5.95
2023-04-16T01:44:49.793Z,9.35
2023-04-16T01:45:53.260Z,5.60
2023-04-16T01:46:55.022Z,6.32
2023-04-16T01:47:57.774Z,4.70
2023-04-16T01:48:59.856Z,4.95
2023-04-16T01:50:02.808Z,4.50
2023-04-16T01:51:05.426Z,6.07
2023-04-16T01:52:09.531Z,5.13
2023-04-16T01:53:11.267Z,5.15
2023-04-16T01:54:13.991Z,5.85
2023-04-16T01:55:15.873Z,5.75
2023-04-16T01:56:18.590Z,5.97
2023-04-16T01:57:20.411Z,5.30
2023-04-16T01:58:23.032Z,6.03
2023-04-16T01:59:24.707Z,6.50
2023-04-16T02:00:27.461Z,8.20
2023-04-16T02:01:29.526Z,7.55
2023-04-16T02:02:32.831Z,6.40
2023-04-16T02:03:34.973Z,5.03
2023-04-16T02:04:38.343Z,9.15
2023-04-16T02:05:40.178Z,5.53
2023-04-16T02:06:42.896Z,5.10
2023-04-16T02:07:46.012Z,6.10
2023-04-16T02:08:48.657Z,5.65
2023-04-16T02:09:50.956Z,5.13
2023-04-16T02:10:53.622Z,5.97
2023-04-16T02:11:55.302Z,5.30
2023-04-16T02:12:57.965Z,4.32
2023-04-16T02:13:59.677Z,4.68
2023-04-16T02:15:02.338Z,5.90
2023-04-16T02:16:04.319Z,5.05
2023-04-16T02:17:07.044Z,6.07
2023-04-16T02:18:08.790Z,6.97
2023-04-16T02:19:11.648Z,5.45
2023-04-16T02:20:13.644Z,6.88
2023-04-16T02:21:16.275Z,4.80
2023-04-16T02:22:17.970Z,6.50
2023-04-16T02:23:22.038Z,5.47
2023-04-16T02:24:23.824Z,6.35
2023-04-16T02:25:26.522Z,6.28
2023-04-16T02:26:29.183Z,4.80
2023-04-16T02:27:32.018Z,5.60
2023-04-16T02:28:33.732Z,5.57
2023-04-16T02:29:36.463Z,4.70
2023-04-16T02:30:38.672Z,4.20
2023-04-16T02:31:41.409Z,7.72
2023-04-16T02:32:43.171Z,5.70
2023-04-16T02:33:46.081Z,6.20
2023-04-16T02:34:47.736Z,7.85
2023-04-16T02:35:50.491Z,6.97
2023-04-16T02:36:52.196Z,5.20
2023-04-16T02:37:54.865Z,6.90
2023-04-16T02:38:58.084Z,7.40
2023-04-16T02:40:01.074Z,6.25
2023-04-16T02:41:02.820Z,8.73
2023-04-16T02:42:05.511Z,7.25
2023-04-16T02:43:07.375Z,7.25
2023-04-16T02:44:10.025Z,6.07
2023-04-16T02:45:12.467Z,4.30
2023-04-16T02:46:15.432Z,6.88
2023-04-16T02:47:17.231Z,6.07
2023-04-16T02:48:19.941Z,5.90
2023-04-16T02:49:21.711Z,8.13
2023-04-16T02:50:24.367Z,7.10
2023-04-16T02:51:26.464Z,4.95
2023-04-16T02:52:29.129Z,6.55
2023-04-16T02:53:30.921Z,7.63
2023-04-16T02:54:34.987Z,6.88
2023-04-16T02:55:36.672Z,6.15
2023-04-16T02:56:39.483Z,6.63
2023-04-16T02:57:42.511Z,5.90
2023-04-16T02:58:45.312Z,4.47
2023-04-16T02:59:47.014Z,7.60
2023-04-16T03:00:49.740Z,6.80
2023-04-16T03:01:51.481Z,7.30
2023-04-16T03:02:54.461Z,4.72
2023-04-16T03:03:56.545Z,8.52
2023-04-16T03:04:59.300Z,7.15
2023-04-16T03:06:01.102Z,5.35
2023-04-16T03:07:03.760Z,5.45
2023-04-16T03:08:06.405Z,8.30
2023-04-16T03:09:09.297Z,6.05
2023-04-16T03:10:13.828Z,5.63
2023-04-16T03:11:16.825Z,9.32
2023-04-16T03:12:18.547Z,6.47
2023-04-16T03:13:21.321Z,6.35
2023-04-16T03:14:23.022Z,6.47
2023-04-16T03:15:26.318Z,7.35
2023-04-16T03:16:28.154Z,8.60
2023-04-16T03:17:30.974Z,8.57
2023-04-16T03:18:32.760Z,7.93
2023-04-16T03:19:35.478Z,8.45
2023-04-16T03:20:37.170Z,6.93
2023-04-16T03:21:43.090Z,7.90
2023-04-16T03:22:44.907Z,8.18
2023-04-16T03:23:47.809Z,6.65
2023-04-16T03:24:49.560Z,6.32
2023-04-16T03:25:53.590Z,7.15
2023-04-16T03:26:57.385Z,7.22
2023-04-16T03:28:00.195Z,8.98
2023-04-16T03:29:02.177Z,9.00
2023-04-16T03:30:05.442Z,7.47
2023-04-16T03:31:07.141Z,8.45
2023-04-16T03:32:09.848Z,8.65
2023-04-16T03:33:11.591Z,5.93
2023-04-16T03:34:14.287Z,9.57
2023-04-16T03:35:16.081Z,7.43
2023-04-16T03:36:18.780Z,10.60
2023-04-16T03:37:20.843Z,6.63
2023-04-16T03:38:23.937Z,7.05
2023-04-16T03:39:25.638Z,10.20
2023-04-16T03:40:28.314Z,7.78
2023-04-16T03:41:31.362Z,6.78
2023-04-16T03:42:34.105Z,7.78
2023-04-16T03:43:36.798Z,7.15
2023-04-16T03:44:38.546Z,7.20
2023-04-16T03:45:45.277Z,9.40
2023-04-16T03:46:47.100Z,8.13
2023-04-16T03:47:52.796Z,7.80
2023-04-16T03:48:54.725Z,9.52
2023-04-16T03:49:57.344Z,8.55
2023-04-16T03:50:59.179Z,8.68
2023-04-16T03:52:01.805Z,8.60
2023-04-16T03:53:03.501Z,8.85
2023-04-16T03:54:06.141Z,8.27
2023-04-16T03:55:08.593Z,8.95
2023-04-16T03:56:11.276Z,8.10
2023-04-16T03:57:14.361Z,9.93
2023-04-16T03:58:17.061Z,8.45
2023-04-16T03:59:18.799Z,8.07
2023-04-16T04:00:21.763Z,8.02
2023-04-16T04:01:23.515Z,8.05
2023-04-16T04:02:26.398Z,7.18
2023-04-16T04:03:28.526Z,6.82
2023-04-16T04:04:31.569Z,8.43
2023-04-16T04:05:36.587Z,7.97
2023-04-16T04:06:39.250Z,6.47
2023-04-16T04:07:41.228Z,7.28
2023-04-16T04:08:43.916Z,9.98
2023-04-16T04:09:45.765Z,8.52
2023-04-16T04:10:48.470Z,8.55
2023-04-16T04:11:50.657Z,8.65
2023-04-16T04:12:54.673Z,7.30
2023-04-16T04:13:56.402Z,6.82
2023-04-16T04:14:59.129Z,7.95
2023-04-16T04:16:01.085Z,9.82
2023-04-16T04:17:03.777Z,10.27
2023-04-16T04:18:05.678Z,8.52
2023-04-16T04:19:08.535Z,8.63
2023-04-16T04:20:11.964Z,8.88
2023-04-16T04:21:14.662Z,10.65
2023-04-16T04:22:16.879Z,9.90
2023-04-16T04:23:19.586Z,9.48
2023-04-16T04:24:21.275Z,8.75
2023-04-16T04:25:24.219Z,10.30
2023-04-16T04:26:26.111Z,7.28
2023-04-16T04:27:28.871Z,8.45
2023-04-16T04:28:32.041Z,7.78
2023-04-16T04:29:34.719Z,6.20
2023-04-16T04:30:36.402Z,9.30
2023-04-16T04:31:39.215Z,7.40
2023-04-16T04:32:40.988Z,7.38
2023-04-16T04:33:43.717Z,7.65
2023-04-16T04:34:45.385Z,7.68
2023-04-16T04:35:48.161Z,8.13
2023-04-16T04:36:49.853Z,9.50
2023-04-16T04:37:52.585Z,8.05
2023-04-16T04:38:54.275Z,8.35
2023-04-16T04:39:57.105Z,8.73
2023-04-16T04:40:59.234Z,9.27
2023-04-16T04:42:03.144Z,7.88
2023-04-16T04:43:04.876Z,7.90
2023-04-16T04:44:08.899Z,8.30
2023-04-16T04:45:11.465Z,8.15
2023-04-16T04:46:14.199Z,8.95
2023-04-16T04:47:16.029Z,6.82
2023-04-16T04:48:18.732Z,6.95
2023-04-16T04:49:20.521Z,8.63
2023-04-16T04:50:23.439Z,8.10
2023-04-16T04:51:27.078Z,8.65
2023-04-16T04:52:28.739Z,6.63
2023-04-16T04:53:31.482Z,8.23
2023-04-16T04:54:33.342Z,7.60
2023-04-16T04:55:35.975Z,8.48
2023-04-16T04:56:37.662Z,6.32
2023-04-16T04:57:40.328Z,9.30
2023-04-16T04:58:42.093Z,10.35
2023-04-16T04:59:46.200Z,7.38
2023-04-16T05:00:47.949Z,7.43
2023-04-16T05:01:51.322Z,8.57
2023-04-16T05:02:53.108Z,8.20
2023-04-16T05:03:55.976Z,6.97
2023-04-16T05:04:57.795Z,9.68
2023-04-16T05:06:00.525Z,6.95
2023-04-16T05:07:02.712Z,8.35
2023-04-16T05:08:05.945Z,9.68
2023-04-16T05:09:11.431Z,7.00
2023-04-16T05:10:14.286Z,9.65
2023-04-16T05:11:16.193Z,6.25
2023-04-16T05:12:18.879Z,7.47
2023-04-16T05:13:20.638Z,8.23
2023-04-16T05:14:23.330Z,8.15
2023-04-16T05:15:26.444Z,7.38
2023-04-16T05:16:29.113Z,7.85
2023-04-16T05:17:30.917Z,8.57
2023-04-16T05:18:33.792Z,7.53
2023-04-16T05:19:35.614Z,6.88
2023-04-16T05:20:38.802Z,6.72
2023-04-16T05:21:40.635Z,8.13
2023-04-16T05:22:43.354Z,7.32
2023-04-16T05:23:45.280Z,9.85
2023-04-16T05:24:47.972Z,7.32
2023-04-16T05:25:49.638Z,8.55
2023-04-16T05:26:52.342Z,11.50
2023-04-16T05:27:54.030Z,7.35
2023-04-16T05:28:59.149Z,8.00
2023-04-16T05:30:00.869Z,8.80
2023-04-16T05:31:05.029Z,7.40
2023-04-16T05:32:06.820Z,8.57
2023-04-16T05:33:09.643Z,7.22
2023-04-16T05:34:11.337Z,7.03
2023-04-16T05:35:16.688Z,7.90
2023-04-16T05:36:19.099Z,7.88
2023-04-16T05:37:21.840Z,6.97
2023-04-16T05:38:23.521Z,7.53
2023-04-16T05:39:26.235Z,7.60
2023-04-16T05:40:27.996Z,7.60
2023-04-16T05:41:30.714Z,7.75
2023-04-16T05:42:32.477Z,8.07
2023-04-16T05:43:35.129Z,8.13
2023-04-16T05:44:36.840Z,6.63
2023-04-16T05:45:41.354Z,6.05
2023-04-16T05:46:44.524Z,6.03
2023-04-16T05:47:47.383Z,5.80
2023-04-16T05:48:49.113Z,6.75
2023-04-16T05:49:51.786Z,7.50
2023-04-16T05:50:53.883Z,6.80
2023-04-16T05:51:56.604Z,6.90
2023-04-16T05:52:59.269Z,6.75
2023-04-16T05:54:01.012Z,7.85
2023-04-16T05:55:03.712Z,8.77
2023-04-16T05:56:06.054Z,6.65
2023-04-16T05:57:08.754Z,8.32
2023-04-16T05:58:10.518Z,7.07
2023-04-16T05:59:13.174Z,7.93
2023-04-16T06:00:15.387Z,6.72
2023-04-16T06:01:18.060Z,8.02
2023-04-16T06:02:21.511Z,6.60
2023-04-16T06:03:24.480Z,6.50
2023-04-16T06:04:26.310Z,7.15
2023-04-16T06:05:29.129Z,7.13
2023-04-16T06:06:30.845Z,6.78
2023-04-16T06:07:33.521Z,6.85
2023-04-16T06:08:36.286Z,7.25
2023-04-16T06:09:38.066Z,6.45
2023-04-16T06:10:40.840Z,8.23
2023-04-16T06:11:42.541Z,7.63
2023-04-16T06:12:45.271Z,9.57
2023-04-16T06:13:47.109Z,6.53
2023-04-16T06:14:49.827Z,5.88
2023-04-16T06:15:51.556Z,7.95
2023-04-16T06:16:54.346Z,9.23
2023-04-16T06:18:00.674Z,7.20
2023-04-16T06:19:03.773Z,6.45
2023-04-16T06:20:06.629Z,6.50
2023-04-16T06:21:09.438Z,7.55
2023-04-16T06:22:11.245Z,7.47
2023-04-16T06:23:13.942Z,7.95
2023-04-16T06:24:15.796Z,8.07
2023-04-16T06:25:18.576Z,8.02
2023-04-16T06:26:20.603Z,7.57
2023-04-16T06:27:23.285Z,9.95
2023-04-16T06:28:25.061Z,8.00
2023-04-16T06:29:37.080Z,6.82
2023-04-16T06:30:44.535Z,7.18
2023-04-16T06:31:47.509Z,11.52
2023-04-16T06:32:49.472Z,8.45
2023-04-16T06:33:53.647Z,7.63
2023-04-16T06:34:56.293Z,8.00
2023-04-16T06:35:58.961Z,6.97
2023-04-16T06:37:01.253Z,7.82
2023-04-16T06:38:03.985Z,8.77
2023-04-16T06:39:05.702Z,7.85
2023-04-16T06:40:09.517Z,7.15
2023-04-16T06:41:11.307Z,7.53
2023-04-16T06:42:13.953Z,8.18
2023-04-16T06:43:17.817Z,8.18
2023-04-16T06:44:20.579Z,9.25
2023-04-16T06:45:22.335Z,9.63
2023-04-16T06:46:25.177Z,7.15
2023-04-16T06:47:27.430Z,7.15
2023-04-16T06:48:30.123Z,7.15
2023-04-16T06:49:33.198Z,9.23
2023-04-16T06:50:35.834Z,8.50
2023-04-16T06:51:37.512Z,8.82
2023-04-16T06:52:40.308Z,8.57
2023-04-16T06:53:42.612Z,8.43
2023-04-16T06:54:45.256Z,9.18
2023-04-16T06:55:47.933Z,8.40
2023-04-16T06:56:49.583Z,9.02
2023-04-16T06:57:52.234Z,7.25
2023-04-16T06:58:53.949Z,12.35
2023-04-16T06:59:56.760Z,12.75
2023-04-16T07:00:59.007Z,11.82
2023-04-16T07:02:02.002Z,7.82
2023-04-16T07:03:04.155Z,7.72
2023-04-16T07:04:07.065Z,9.38
2023-04-16T07:05:10.252Z,8.00
2023-04-16T07:06:12.885Z,7.40
2023-04-16T07:07:14.568Z,8.65
2023-04-16T07:08:17.215Z,8.85
2023-04-16T07:09:19.126Z,8.40
2023-04-16T07:10:21.809Z,8.32
2023-04-16T07:11:25.820Z,7.93
2023-04-16T07:12:27.518Z,8.23
2023-04-16T07:13:30.153Z,7.95
2023-04-16T07:14:31.887Z,8.38
2023-04-16T07:15:34.789Z,9.45
2023-04-16T07:16:37.840Z,7.25
2023-04-16T07:17:40.951Z,7.72
2023-04-16T07:18:42.647Z,8.50
2023-04-16T07:19:45.536Z,7.05
2023-04-16T07:20:49.582Z,8.90
2023-04-16T07:21:51.393Z,7.45
2023-04-16T07:22:54.086Z,8.02
2023-04-16T07:23:55.760Z,8.95
2023-04-16T07:24:58.488Z,8.18
2023-04-16T07:26:00.806Z,8.27
2023-04-16T07:27:03.510Z,9.88
2023-04-16T07:28:05.335Z,8.73
2023-04-16T07:29:08.387Z,10.88
2023-04-16T07:30:10.980Z,8.02
2023-04-16T07:31:13.685Z,8.60
2023-04-16T07:32:15.937Z,6.88
2023-04-16T07:33:18.717Z,6.65
2023-04-16T07:34:20.534Z,9.45
2023-04-16T07:35:23.301Z,9.45
2023-04-16T07:36:28.400Z,8.85
2023-04-16T07:37:31.324Z,8.55
2023-04-16T07:38:34.533Z,8.85
2023-04-16T07:39:37.165Z,7.47
2023-04-16T07:40:38.895Z,8.38
2023-04-16T07:41:41.744Z,9.25
2023-04-16T07:42:43.747Z,6.95
2023-04-16T07:43:46.572Z,7.63
2023-04-16T07:44:48.304Z,7.65
2023-04-16T07:45:50.990Z,11.27
2023-04-16T07:46:53.965Z,9.80
2023-04-16T07:47:56.573Z,7.75
2023-04-16T07:48:59.354Z,8.10
2023-04-16T07:50:01.034Z,7.55
2023-04-16T07:51:03.789Z,8.35
2023-04-16T07:52:06.820Z,7.13
2023-04-16T07:53:09.484Z,9.55
2023-04-16T07:54:11.550Z,9.60
2023-04-16T07:55:14.322Z,8.80
2023-04-16T07:56:16.089Z,7.63
2023-04-16T07:57:18.791Z,10.30
2023-04-16T07:58:21.560Z,8.65
2023-04-16T07:59:24.614Z,7.57
2023-04-16T08:00:27.476Z,8.60
2023-04-16T08:01:29.240Z,8.20
2023-04-16T08:02:32.320Z,11.68
2023-04-16T08:03:34.406Z,8.63
2023-04-16T08:04:37.666Z,7.85
2023-04-16T08:05:40.638Z,8.18
2023-04-16T08:06:42.340Z,10.50
2023-04-16T08:07:46.369Z,7.80
2023-04-16T08:08:49.201Z,12.25
2023-04-16T08:09:52.172Z,9.90
2023-04-16T08:10:56.003Z,7.13
2023-04-16T08:11:58.725Z,7.75
2023-04-16T08:13:01.591Z,7.25
2023-04-16T08:14:03.319Z,8.13
2023-04-16T08:15:07.379Z,9.23
2023-04-16T08:16:09.264Z,8.85
2023-04-16T08:17:12.022Z,9.82
2023-04-16T08:18:15.605Z,8.98
2023-04-16T08:19:18.414Z,10.80
2023-04-16T08:20:20.223Z,8.15
2023-04-16T08:21:23.154Z,10.15
2023-04-16T08:22:26.389Z,10.40
2023-04-16T08:23:29.838Z,7.47
2023-04-16T08:24:32.597Z,9.27
2023-04-16T08:25:34.348Z,8.30
2023-04-16T08:26:37.013Z,9.65
2023-04-16T08:27:39.710Z,8.20
2023-04-16T08:28:41.396Z,10.07
2023-04-16T08:29:44.101Z,8.25
2023-04-16T08:30:46.786Z,9.50
2023-04-16T08:31:48.563Z,7.55
2023-04-16T08:32:51.481Z,9.63
2023-04-16T08:33:53.174Z,8.45
2023-04-16T08:34:55.882Z,8.75
2023-04-16T08:35:57.596Z,8.13
2023-04-16T08:37:00.295Z,8.20
2023-04-16T08:38:04.780Z,7.13
2023-04-16T08:39:08.086Z,7.38
2023-04-16T08:40:11.581Z,7.30
2023-04-16T08:41:13.531Z,10.82
2023-04-16T08:42:23.865Z,8.55
2023-04-16T08:43:26.194Z,7.65
2023-04-16T08:44:31.102Z,11.60
2023-04-16T08:45:35.160Z,6.93
2023-04-16T08:46:38.964Z,7.63
2023-04-16T08:47:41.609Z,8.48
2023-04-16T08:48:47.410Z,8.02
2023-04-16T08:49:49.179Z,9.25
2023-04-16T08:50:55.524Z,7.38
2023-04-16T08:51:57.515Z,7.75
2023-04-16T08:53:01.274Z,8.18
2023-04-16T08:54:04.808Z,8.02
2023-04-16T08:55:14.018Z,7.70
2023-04-16T08:56:16.127Z,8.73
2023-04-16T08:57:21.046Z,7.35
2023-04-16T08:58:23.946Z,8.40
2023-04-16T08:59:25.912Z,9.07
2023-04-16T09:00:29.720Z,7.50
2023-04-16T09:01:33.742Z,5.47
2023-04-16T09:02:36.448Z,6.40
2023-04-16T09:03:39.754Z,7.60
2023-04-16T09:04:42.381Z,9.30
2023-04-16T09:05:45.251Z,6.25
2023-04-16T09:06:48.011Z,9.25
2023-04-16T09:07:50.759Z,6.65
2023-04-16T09:08:53.581Z,7.00
2023-04-16T09:09:56.282Z,9.93
2023-04-16T09:11:00.757Z,7.40
2023-04-16T09:12:02.769Z,7.03
2023-04-16T09:13:05.512Z,9.27
2023-04-16T09:14:09.673Z,8.82
2023-04-16T09:15:13.913Z,9.40
2023-04-16T09:16:15.735Z,7.43
2023-04-16T09:17:19.151Z,6.18
2023-04-16T09:18:22.188Z,7.70
2023-04-16T09:19:24.038Z,7.18
2023-04-16T09:20:26.684Z,9.70
2023-04-16T09:21:28.511Z,7.28
2023-04-16T09:22:31.219Z,8.63
2023-04-16T09:23:33.870Z,8.75
2023-04-16T09:24:35.589Z,7.70
2023-04-16T09:25:38.552Z,9.02
2023-04-16T09:26:43.520Z,7.57
2023-04-16T09:27:46.927Z,7.90
2023-04-16T09:28:50.911Z,8.75
2023-04-16T09:29:53.696Z,7.07
2023-04-16T09:31:08.168Z,6.63
2023-04-16T09:32:11.957Z,8.57
2023-04-16T09:33:16.773Z,7.15
2023-04-16T09:34:18.502Z,9.70
2023-04-16T09:35:21.754Z,9.38
2023-04-16T09:36:23.715Z,9.05
2023-04-16T09:37:26.839Z,9.88
2023-04-16T09:38:47.034Z,9.15
2023-04-16T09:39:55.048Z,6.57
2023-04-16T09:41:07.688Z,10.52
2023-04-16T09:42:10.985Z,9.23
2023-04-16T09:43:15.488Z,7.68
2023-04-16T09:44:17.228Z,10.38
2023-04-16T09:45:19.940Z,9.52
2023-04-16T09:46:21.820Z,8.43
2023-04-16T09:47:25.744Z,9.88
2023-04-16T09:48:31.098Z,10.18
2023-04-16T09:49:35.419Z,9.40
2023-04-16T09:50:38.142Z,8.52
2023-04-16T09:51:41.948Z,8.27
2023-04-16T09:52:45.527Z,8.20
2023-04-16T09:53:47.360Z,9.05
2023-04-16T09:54:50.893Z,8.65
2023-04-16T09:55:52.686Z,7.28
2023-04-16T09:56:58.021Z,9.88
2023-04-16T09:58:01.703Z,9.43
2023-04-16T09:59:04.487Z,8.05
2023-04-16T10:00:08.923Z,6.88
2023-04-16T10:01:12.777Z,10.82
2023-04-16T10:02:16.055Z,11.20
2023-04-16T10:03:19.473Z,8.43
2023-04-16T10:04:22.384Z,9.27
2023-04-16T10:05:26.572Z,11.60
2023-04-16T10:06:31.177Z,9.27
2023-04-16T10:07:34.621Z,7.47
2023-04-16T10:08:37.285Z,8.20
2023-04-16T10:09:39.540Z,10.30
2023-04-16T10:10:46.631Z,9.35
2023-04-16T10:11:49.841Z,15.57
2023-04-16T10:12:52.764Z,10.25
2023-04-16T10:13:56.821Z,9.35
2023-04-16T10:14:58.557Z,9.63
2023-04-16T10:16:01.607Z,9.27
2023-04-16T10:17:04.455Z,7.70
2023-04-16T10:18:07.470Z,7.05
2023-04-16T10:19:10.374Z,10.38
2023-04-16T10:20:12.425Z,9.07
2023-04-16T10:21:16.281Z,7.88
2023-04-16T10:22:17.983Z,9.45
2023-04-16T10:23:21.052Z,9.20
2023-04-16T10:24:22.810Z,8.15
2023-04-16T10:25:25.882Z,7.40
2023-04-16T10:26:28.863Z,9.68
2023-04-16T10:27:31.674Z,9.38
2023-04-16T10:28:35.556Z,9.10
2023-04-16T10:29:39.106Z,10.85
2023-04-16T10:30:42.602Z,10.57
2023-04-16T10:31:44.944Z,11.32
2023-04-16T10:32:47.840Z,8.55
2023-04-16T10:33:49.713Z,12.57
2023-04-16T10:34:52.496Z,9.63
2023-04-16T10:36:08.237Z,8.60
2023-04-16T10:37:11.008Z,9.32
2023-04-16T10:38:23.195Z,8.88
2023-04-16T10:39:28.333Z,9.15
2023-04-16T10:40:30.263Z,8.73
2023-04-16T10:41:33.904Z,8.55
2023-04-16T10:42:35.849Z,9.43
2023-04-16T10:43:42.613Z,8.82
2023-04-16T10:44:47.234Z,11.00
2023-04-16T10:45:49.088Z,8.30
2023-04-16T10:46:51.803Z,10.23
2023-04-16T10:47:56.192Z,8.98
2023-04-16T10:49:02.151Z,8.40
2023-04-16T10:50:16.832Z,8.60
2023-04-16T10:51:26.138Z,8.57
2023-04-16T10:52:30.606Z,9.15
2023-04-16T10:53:33.503Z,9.05
2023-04-16T10:54:36.860Z,11.43
2023-04-16T10:55:38.795Z,10.95
2023-04-16T10:56:41.519Z,8.27
2023-04-16T10:57:43.194Z,10.70
2023-04-16T10:58:45.886Z,11.00
2023-04-16T10:59:50.236Z,9.82
2023-04-16T11:00:52.662Z,10.02
2023-04-16T11:01:56.878Z,12.55
2023-04-16T11:02:58.806Z,10.20
2023-04-16T11:04:03.037Z,9.90
2023-04-16T11:05:05.446Z,9.65
2023-04-16T11:06:16.559Z,9.40
2023-04-16T11:07:21.157Z,8.90
2023-04-16T11:08:23.813Z,11.77
2023-04-16T11:09:47.691Z,11.63
2023-04-16T11:10:49.586Z,10.55
2023-04-16T11:11:52.314Z,9.32
2023-04-16T11:12:54.753Z,9.15
2023-04-16T11:14:00.309Z,9.73
2023-04-16T11:15:04.656Z,9.85
2023-04-16T11:16:07.471Z,8.48
2023-04-16T11:17:09.613Z,9.23
2023-04-16T11:18:12.394Z,7.93
2023-04-16T11:19:17.176Z,9.07
2023-04-16T11:20:22.998Z,8.15
2023-04-16T11:21:25.421Z,11.15
2023-04-16T11:22:28.403Z,8.95
2023-04-16T11:23:30.114Z,10.55
2023-04-16T11:24:32.789Z,10.60
2023-04-16T11:25:34.527Z,10.30
2023-04-16T11:26:37.268Z,8.88
2023-04-16T11:27:39.335Z,8.98
2023-04-16T11:28:42.049Z,9.20
2023-04-16T11:29:46.977Z,9.50
2023-04-16T11:30:50.658Z,9.55
2023-04-16T11:31:53.911Z,8.38
2023-04-16T11:32:56.744Z,11.52
2023-04-16T11:33:59.370Z,10.32
2023-04-16T11:35:04.515Z,8.57
2023-04-16T11:36:06.612Z,11.73
2023-04-16T11:37:09.289Z,11.02
2023-04-16T11:38:11.061Z,11.10
2023-04-16T11:39:13.819Z,8.98
2023-04-16T11:40:15.502Z,9.82
2023-04-16T11:41:22.683Z,10.80
2023-04-16T11:42:27.003Z,9.35
2023-04-16T11:43:28.949Z,9.45
2023-04-16T11:44:31.639Z,11.23
2023-04-16T11:45:34.351Z,10.32
2023-04-16T11:46:40.721Z,9.20
2023-04-16T11:47:45.054Z,8.75
2023-04-16T11:48:48.117Z,8.52
2023-04-16T11:49:50.864Z,9.48
2023-04-16T11:50:56.674Z,11.35
2023-04-16T11:51:59.657Z,8.05
2023-04-16T11:53:05.022Z,11.45
2023-04-16T11:54:10.340Z,10.13
2023-04-16T11:55:13.609Z,11.48
2023-04-16T11:56:17.541Z,12.52
2023-04-16T11:57:25.835Z,8.57
2023-04-16T11:58:27.590Z,7.75
2023-04-16T11:59:30.294Z,8.50
2023-04-16T12:00:34.879Z,9.00
2023-04-16T12:01:38.606Z,9.25
2023-04-16T12:02:43.745Z,10.32
2023-04-16T12:03:49.558Z,12.25
2023-04-16T12:04:52.718Z,9.88
2023-04-16T12:05:54.591Z,8.35
2023-04-16T12:07:11.013Z,9.00
2023-04-16T12:08:12.826Z,9.27
2023-04-16T12:09:25.208Z,9.73
2023-04-16T12:10:28.144Z,6.53
2023-04-16T12:11:40.296Z,8.00
2023-04-16T12:12:43.006Z,8.63
2023-04-16T12:14:09.688Z,11.98
2023-04-16T12:15:12.462Z,8.68
2023-04-16T12:16:20.018Z,8.27
2023-04-16T12:17:22.876Z,7.50
2023-04-16T12:18:27.678Z,9.48
2023-04-16T12:19:29.466Z,12.32
2023-04-16T12:20:40.483Z,10.48
2023-04-16T12:21:43.460Z,9.57
2023-04-16T12:22:47.459Z,9.13
2023-04-16T12:23:53.377Z,8.95
2023-04-16T12:25:04.497Z,12.48
2023-04-16T12:26:10.424Z,8.45
2023-04-16T12:27:13.548Z,7.93
2023-04-16T12:28:16.546Z,9.25
2023-04-16T12:29:20.466Z,9.55
2023-04-16T12:30:24.512Z,9.80
2023-04-16T12:31:37.174Z,8.43
2023-04-16T12:32:39.892Z,8.27
2023-04-16T12:33:43.944Z,9.48
2023-04-16T12:34:51.181Z,9.38
2023-04-16T12:35:54.025Z,8.07
2023-04-16T12:37:09.635Z,12.00
2023-04-16T12:38:15.027Z,8.40
2023-04-16T12:39:17.847Z,10.70
2023-04-16T12:40:19.529Z,8.32
2023-04-16T12:41:22.194Z,11.10
2023-04-16T12:42:23.874Z,9.23
2023-04-16T12:43:26.673Z,10.63
2023-04-16T12:44:29.457Z,11.93
2023-04-16T12:45:32.212Z,12.80
2023-04-16T12:46:33.990Z,10.57
2023-04-16T12:47:37.077Z,10.40
2023-04-16T12:48:41.330Z,9.80
2023-04-16T12:49:45.731Z,10.00
2023-04-16T12:50:47.570Z,9.85
2023-04-16T12:51:50.285Z,8.88
2023-04-16T12:52:52.091Z,9.90
2023-04-16T12:53:56.449Z,10.68
2023-04-16T12:54:58.214Z,9.80
2023-04-16T12:56:01.245Z,8.45
2023-04-16T12:57:03.598Z,8.85
2023-04-16T12:58:06.658Z,11.77
2023-04-16T13:00:14.816Z,11.18
2023-04-16T13:01:16.555Z,10.75
2023-04-16T13:02:19.401Z,9.35
2023-04-16T13:03:21.656Z,10.05
2023-04-16T13:04:25.824Z,10.60
2023-04-16T13:05:29.336Z,12.10
2023-04-16T13:06:32.632Z,11.05
2023-04-16T13:07:34.349Z,10.10
2023-04-16T13:08:37.416Z,9.23
2023-04-16T13:09:40.894Z,9.32
2023-04-16T13:10:42.785Z,9.43
2023-04-16T13:11:45.586Z,8.73
2023-04-16T13:12:47.271Z,10.80
2023-04-16T13:13:49.944Z,11.93
2023-04-16T13:14:51.624Z,9.90
2023-04-16T13:15:54.407Z,9.25
2023-04-16T13:16:57.094Z,14.50
2023-04-16T13:17:58.852Z,12.75
2023-04-16T13:19:01.716Z,7.90
2023-04-16T13:20:03.700Z,9.27
2023-04-16T13:21:07.942Z,11.90
2023-04-16T13:22:09.888Z,8.10
2023-04-16T13:23:12.596Z,10.50
2023-04-16T13:24:14.480Z,8.93
2023-04-16T13:25:17.352Z,9.93
2023-04-16T13:26:20.043Z,11.73
2023-04-16T13:27:21.723Z,7.80
2023-04-16T13:28:24.440Z,9.73
2023-04-16T13:29:26.263Z,8.43
2023-04-16T13:30:30.057Z,8.48
2023-04-16T13:31:31.838Z,10.40
2023-04-16T13:32:34.689Z,11.80
2023-04-16T13:33:36.599Z,14.95
2023-04-16T13:34:39.330Z,13.88
2023-04-16T13:35:40.997Z,9.73
2023-04-16T13:36:45.347Z,11.90
2023-04-16T13:37:48.030Z,11.95
2023-04-16T13:38:50.901Z,9.82
2023-04-16T13:39:52.727Z,10.30
2023-04-16T13:40:55.434Z,12.05
2023-04-16T13:41:57.115Z,8.57
2023-04-16T13:42:59.784Z,10.23
2023-04-16T13:44:02.502Z,11.23
2023-04-16T13:45:04.794Z,8.98
2023-04-16T13:46:07.538Z,9.73
2023-04-16T13:47:09.367Z,12.15
2023-04-16T13:48:12.053Z,9.35
2023-04-16T13:49:14.858Z,11.93
2023-04-16T13:50:16.657Z,11.05
2023-04-16T13:51:19.472Z,12.23
2023-04-16T13:52:23.542Z,11.80
2023-04-16T13:53:26.252Z,11.02
2023-04-16T13:54:27.903Z,10.73
2023-04-16T13:55:31.904Z,15.75
2023-04-16T13:56:34.739Z,11.38